Time;durP1;ratioP1;P1;durP2;ratioP2;P2;SDS_P1;SDS_P2;PMS_P1;PMS_P2;Temp;Humidity;BMP_temperature;BMP_pressure;BME280_temperature;BME280_humidity;BME280_pressure;Samples;Min_cycle;Max_cycle;Signal;HPM_P1;HPM_P2
2023/07/18 00:03:07;;;;;;;1.27;0.40;;;;;;;;;;10125439;28;20298;-74
2023/07/18 00:08:08;;;;;;;1.38;0.55;;;;;;;;;;10120441;28;20239;-76
2023/07/18 00:13:09;;;;;;;0.40;0.40;;;;;;;;;;10140463;28;20315;-75
2023/07/18 00:18:10;;;;;;;0.35;0.35;;;;;;;;;;10148493;28;20370;-74
2023/07/18 00:23:13;;;;;;;1.90;0.40;;;;;;;;;;10137544;28;20236;-76
2023/07/18 00:28:14;;;;;;;3.83;0.60;;;;;;;;;;10112614;28;20344;-76
2023/07/18 00:33:15;;;;;;;0.40;0.40;;;;;;;;;;10155577;28;22200;-76
2023/07/18 00:38:18;;;;;;;3.15;0.40;;;;;;;;;;10122851;28;21392;-76
2023/07/18 00:43:19;;;;;;;0.85;0.85;;;;;;;;;;10113597;28;20931;-75
2023/07/18 00:48:22;;;;;;;0.50;0.50;;;;;;;;;;10126069;28;20338;-74
2023/07/18 00:53:23;;;;;;;0.60;0.57;;;;;;;;;;10131745;28;20216;-75
2023/07/18 00:58:24;;;;;;;0.60;0.60;;;;;;;;;;10131095;28;20354;-76
2023/07/18 01:03:27;;;;;;;1.08;1.08;;;;;;;;;;10148438;28;20224;-75
2023/07/18 01:08:28;;;;;;;0.70;0.70;;;;;;;;;;10107123;28;20934;-77
2023/07/18 01:13:29;;;;;;;2.30;0.93;;;;;;;;;;10119113;28;20639;-75
2023/07/18 01:18:30;;;;;;;0.55;0.55;;;;;;;;;;10129574;28;20223;-76
2023/07/18 01:23:31;;;;;;;2.88;0.60;;;;;;;;;;10130954;28;22999;-76
2023/07/18 01:28:33;;;;;;;0.93;0.93;;;;;;;;;;10117539;28;20216;-76
2023/07/18 01:33:34;;;;;;;2.53;0.90;;;;;;;;;;10138465;28;20220;-74
2023/07/18 01:38:35;;;;;;;0.60;0.60;;;;;;;;;;10104312;28;20216;-74
2023/07/18 01:43:37;;;;;;;0.80;0.80;;;;;;;;;;10129163;28;23241;-76
2023/07/18 01:48:38;;;;;;;1.95;0.80;;;;;;;;;;10123767;28;20212;-75
2023/07/18 01:53:41;;;;;;;3.15;1.08;;;;;;;;;;10125788;28;20227;-77
2023/07/18 01:58:44;;;;;;;0.50;0.50;;;;;;;;;;10133811;28;20337;-74
2023/07/18 02:03:46;;;;;;;2.85;0.77;;;;;;;;;;10109236;28;20216;-76
2023/07/18 02:08:48;;;;;;;2.97;0.88;;;;;;;;;;10134042;28;20224;-75
2023/07/18 02:13:49;;;;;;;0.70;0.50;;;;;;;;;;10124321;28;20216;-75
2023/07/18 02:18:51;;;;;;;1.05;1.05;;;;;;;;;;10126801;28;21404;-77
2023/07/18 02:23:52;;;;;;;2.45;0.80;;;;;;;;;;10124363;28;20229;-77
2023/07/18 02:28:54;;;;;;;1.08;0.88;;;;;;;;;;10124994;28;20212;-75
2023/07/18 02:33:55;;;;;;;0.60;0.60;;;;;;;;;;10132142;28;20236;-74
2023/07/18 02:38:56;;;;;;;3.50;0.88;;;;;;;;;;10124938;28;20223;-72
2023/07/18 02:43:57;;;;;;;3.00;0.77;;;;;;;;;;10119186;28;20224;-76
2023/07/18 02:48:58;;;;;;;2.88;0.80;;;;;;;;;;10130470;28;23084;-76
2023/07/18 02:53:59;;;;;;;0.60;0.60;;;;;;;;;;10138086;28;21828;-75
2023/07/18 02:59:01;;;;;;;2.38;0.95;;;;;;;;;;10125923;28;20212;-75
2023/07/18 03:04:02;;;;;;;1.55;0.93;;;;;;;;;;10111013;28;20541;-75
2023/07/18 03:09:05;;;;;;;3.60;0.65;;;;;;;;;;10123959;28;20281;-76
2023/07/18 03:14:08;;;;;;;1.02;0.60;;;;;;;;;;10133248;28;21250;-77
2023/07/18 03:19:14;;;;;;;2.42;0.75;;;;;;;;;;10128068;28;20244;-76
2023/07/18 03:24:15;;;;;;;1.88;0.95;;;;;;;;;;10131808;28;20239;-76
2023/07/18 03:29:16;;;;;;;0.82;0.82;;;;;;;;;;10138646;28;20223;-77
2023/07/18 03:34:17;;;;;;;3.88;0.80;;;;;;;;;;10113326;28;20543;-75
2023/07/18 03:39:20;;;;;;;0.88;0.70;;;;;;;;;;10117787;28;22289;-76
2023/07/18 03:44:22;;;;;;;0.85;0.75;;;;;;;;;;10120049;28;20694;-74
2023/07/18 03:49:23;;;;;;;1.85;0.60;;;;;;;;;;10119637;28;23014;-76
2023/07/18 03:54:24;;;;;;;0.63;0.63;;;;;;;;;;10120881;28;20263;-76
2023/07/18 03:59:25;;;;;;;1.05;0.68;;;;;;;;;;10117813;28;21421;-74
2023/07/18 04:04:29;;;;;;;0.55;0.55;;;;;;;;;;10116566;28;20236;-74
2023/07/18 04:09:30;;;;;;;3.20;0.80;;;;;;;;;;10106924;28;21454;-75
2023/07/18 04:14:31;;;;;;;1.67;1.25;;;;;;;;;;10120149;28;20224;-75
2023/07/18 04:19:32;;;;;;;4.75;0.85;;;;;;;;;;10125017;28;21176;-77
2023/07/18 04:24:34;;;;;;;1.13;1.13;;;;;;;;;;10112386;28;21486;-74
2023/07/18 04:29:35;;;;;;;1.05;1.02;;;;;;;;;;10120834;28;20231;-77
2023/07/18 04:34:36;;;;;;;1.75;1.27;;;;;;;;;;10113813;28;20694;-76
2023/07/18 04:39:37;;;;;;;0.88;0.88;;;;;;;;;;10132549;28;21140;-74
2023/07/18 04:44:38;;;;;;;1.38;0.80;;;;;;;;;;10134273;28;20235;-74
2023/07/18 04:49:39;;;;;;;0.98;0.98;;;;;;;;;;10145631;28;21498;-75
2023/07/18 04:54:41;;;;;;;3.10;0.43;;;;;;;;;;10171280;28;20258;-80
2023/07/18 04:59:42;;;;;;;3.33;0.80;;;;;;;;;;10185802;28;20310;-78
2023/07/18 05:04:43;;;;;;;0.90;0.90;;;;;;;;;;10179566;28;20278;-80
2023/07/18 05:09:46;;;;;;;2.03;1.20;;;;;;;;;;10182367;28;20462;-79
2023/07/18 05:14:47;;;;;;;1.20;1.00;;;;;;;;;;10207228;28;20216;-77
2023/07/18 05:19:48;;;;;;;1.10;1.10;;;;;;;;;;10207985;28;20219;-78
2023/07/18 05:24:50;;;;;;;2.72;0.95;;;;;;;;;;10193466;28;21491;-80
2023/07/18 05:29:51;;;;;;;2.20;1.00;;;;;;;;;;10176637;28;20299;-79
2023/07/18 05:34:53;;;;;;;1.42;1.02;;;;;;;;;;10178373;28;20227;-75
2023/07/18 05:39:54;;;;;;;2.85;1.10;;;;;;;;;;10196617;28;20220;-78
2023/07/18 05:44:55;;;;;;;0.85;0.85;;;;;;;;;;10208001;28;20224;-79
2023/07/18 05:49:56;;;;;;;2.78;0.88;;;;;;;;;;10204528;28;20239;-78
2023/07/18 05:54:57;;;;;;;1.48;1.05;;;;;;;;;;10202917;28;20586;-77
2023/07/18 05:59:58;;;;;;;1.08;1.08;;;;;;;;;;10198978;28;22810;-79
2023/07/18 06:04:59;;;;;;;1.20;0.80;;;;;;;;;;10147831;28;21534;-78
2023/07/18 06:10:00;;;;;;;0.63;0.63;;;;;;;;;;10178717;28;20232;-77
2023/07/18 06:15:01;;;;;;;3.90;1.23;;;;;;;;;;10196945;28;21218;-77
2023/07/18 06:20:12;;;;;;;1.38;0.80;;;;;;;;;;10194591;28;23266;-77
2023/07/18 06:25:15;;;;;;;1.25;0.95;;;;;;;;;;10181544;28;20220;-76
2023/07/18 06:30:17;;;;;;;2.70;0.90;;;;;;;;;;10177056;28;20293;-76
2023/07/18 06:35:18;;;;;;;0.80;0.80;;;;;;;;;;10157938;28;20710;-78
2023/07/18 06:40:19;;;;;;;4.22;0.90;;;;;;;;;;10168187;28;20195;-77
2023/07/18 06:45:20;;;;;;;1.27;1.10;;;;;;;;;;10169556;28;20962;-74
2023/07/18 06:50:21;;;;;;;0.90;0.90;;;;;;;;;;10146086;28;20196;-75
2023/07/18 06:55:22;;;;;;;0.90;0.90;;;;;;;;;;10119589;28;20404;-77
2023/07/18 07:00:23;;;;;;;3.30;1.02;;;;;;;;;;10119924;28;22053;-74
2023/07/18 07:05:24;;;;;;;1.70;0.77;;;;;;;;;;10103202;28;21289;-76
2023/07/18 07:10:25;;;;;;;1.20;1.20;;;;;;;;;;10126010;28;22973;-77
2023/07/18 07:15:26;;;;;;;1.33;1.10;;;;;;;;;;10118115;28;20269;-76
2023/07/18 07:20:28;;;;;;;3.08;1.08;;;;;;;;;;10135275;28;21894;-76
2023/07/18 07:25:31;;;;;;;3.50;0.55;;;;;;;;;;10123569;28;20966;-76
2023/07/18 07:30:32;;;;;;;1.88;1.00;;;;;;;;;;10134730;28;20224;-77
2023/07/18 07:35:33;;;;;;;3.22;1.00;;;;;;;;;;10113691;28;20891;-76
2023/07/18 07:40:34;;;;;;;2.95;0.70;;;;;;;;;;10132193;28;21333;-75
2023/07/18 07:45:35;;;;;;;1.65;0.80;;;;;;;;;;10116560;28;20224;-75
2023/07/18 07:50:36;;;;;;;1.42;0.88;;;;;;;;;;10116435;28;21375;-75
2023/07/18 07:55:38;;;;;;;1.70;0.70;;;;;;;;;;10107531;28;20282;-75
2023/07/18 08:00:39;;;;;;;2.85;0.93;;;;;;;;;;10109130;28;20262;-76
2023/07/18 08:05:40;;;;;;;1.15;0.60;;;;;;;;;;10092953;28;22347;-74
2023/07/18 08:10:41;;;;;;;3.05;0.63;;;;;;;;;;10104213;28;20228;-72
2023/07/18 08:15:42;;;;;;;2.80;0.77;;;;;;;;;;10089577;28;20224;-73
2023/07/18 08:20:43;;;;;;;5.47;0.60;;;;;;;;;;10109944;28;20942;-74
2023/07/18 08:25:44;;;;;;;3.25;0.75;;;;;;;;;;10103062;28;22013;-73
2023/07/18 08:30:45;;;;;;;0.90;0.70;;;;;;;;;;10102450;28;21260;-75
2023/07/18 08:35:46;;;;;;;1.48;0.60;;;;;;;;;;10107994;28;20812;-74
2023/07/18 08:40:49;;;;;;;0.82;0.40;;;;;;;;;;10112663;28;20219;-75
2023/07/18 08:45:50;;;;;;;4.00;0.65;;;;;;;;;;10103499;28;20989;-76
2023/07/18 08:50:53;;;;;;;0.57;0.47;;;;;;;;;;10133211;28;21239;-75
2023/07/18 08:55:55;;;;;;;0.50;0.40;;;;;;;;;;10106180;28;20469;-78
2023/07/18 09:00:56;;;;;;;0.40;0.40;;;;;;;;;;10080559;28;20224;-77
2023/07/18 09:06:01;;;;;;;0.40;0.40;;;;;;;;;;10063873;28;20308;-77
2023/07/18 09:11:03;;;;;;;0.40;0.40;;;;;;;;;;10081463;28;20671;-77
2023/07/18 09:16:21;;;;;;;0.80;0.40;;;;;;;;;;10073103;28;20544;-74
2023/07/18 09:21:23;;;;;;;0.77;0.40;;;;;;;;;;10070606;28;20310;-77
2023/07/18 09:26:24;;;;;;;0.40;0.40;;;;;;;;;;10090699;28;20261;-77
2023/07/18 09:31:26;;;;;;;0.73;0.30;;;;;;;;;;10094340;28;20229;-78
2023/07/18 09:36:27;;;;;;;1.17;0.40;;;;;;;;;;10083360;28;20354;-75
2023/07/18 09:41:28;;;;;;;0.35;0.35;;;;;;;;;;10089910;28;20224;-77
2023/07/18 09:46:29;;;;;;;0.40;0.40;;;;;;;;;;10097141;28;21206;-74
2023/07/18 09:51:33;;;;;;;1.98;0.38;;;;;;;;;;10084293;28;20230;-76
2023/07/18 09:56:35;;;;;;;0.30;0.30;;;;;;;;;;10086906;28;20238;-74
2023/07/18 10:01:38;;;;;;;1.35;0.43;;;;;;;;;;10097778;28;20301;-76
2023/07/18 10:06:39;;;;;;;0.77;0.38;;;;;;;;;;10098359;28;20960;-75
2023/07/18 10:11:59;;;;;;;0.63;0.30;;;;;;;;;;10078037;28;20672;-77
2023/07/18 10:17:05;;;;;;;0.20;0.20;;;;;;;;;;10082915;28;22182;-78
2023/07/18 10:22:06;;;;;;;1.02;0.25;;;;;;;;;;10101313;28;23204;-76
2023/07/18 10:27:08;;;;;;;0.30;0.30;;;;;;;;;;10115874;28;20347;-79
2023/07/18 10:32:12;;;;;;;0.30;0.30;;;;;;;;;;10117677;28;20234;-78
2023/07/18 10:37:14;;;;;;;1.38;0.30;;;;;;;;;;10123741;28;20223;-79
2023/07/18 10:42:23;;;;;;;0.47;0.40;;;;;;;;;;10085709;28;21687;-77
2023/07/18 10:47:25;;;;;;;0.40;0.40;;;;;;;;;;10090888;28;20418;-75
2023/07/18 10:52:26;;;;;;;2.95;0.30;;;;;;;;;;10100540;28;20228;-76
2023/07/18 10:57:28;;;;;;;0.60;0.40;;;;;;;;;;10079718;28;20227;-76
2023/07/18 11:02:35;;;;;;;0.30;0.30;;;;;;;;;;10099027;28;20220;-75
2023/07/18 11:07:36;;;;;;;0.88;0.30;;;;;;;;;;10075083;28;20236;-78
2023/07/18 11:12:37;;;;;;;0.90;0.30;;;;;;;;;;10072514;28;20770;-77
2023/07/18 11:17:38;;;;;;;0.30;0.30;;;;;;;;;;10068567;28;20423;-77
2023/07/18 11:22:40;;;;;;;0.40;0.20;;;;;;;;;;10098471;28;20385;-76
2023/07/18 11:27:41;;;;;;;1.30;0.30;;;;;;;;;;10086479;28;22790;-74
2023/07/18 11:32:45;;;;;;;0.30;0.30;;;;;;;;;;10075161;28;20232;-75
2023/07/18 11:37:50;;;;;;;0.52;0.30;;;;;;;;;;10085524;28;20755;-77
2023/07/18 11:42:51;;;;;;;0.22;0.22;;;;;;;;;;10081165;28;21954;-76
2023/07/18 11:47:53;;;;;;;0.38;0.30;;;;;;;;;;10094345;28;21519;-75
2023/07/18 11:52:55;;;;;;;0.47;0.32;;;;;;;;;;10094398;28;20258;-76
2023/07/18 11:57:57;;;;;;;1.25;0.30;;;;;;;;;;10094087;28;22168;-76
2023/07/18 12:02:58;;;;;;;0.65;0.30;;;;;;;;;;10084144;28;20477;-76
2023/07/18 12:07:59;;;;;;;0.20;0.20;;;;;;;;;;10111448;28;20236;-76
2023/07/18 12:13:00;;;;;;;0.20;0.20;;;;;;;;;;10082585;28;21943;-77
2023/07/18 12:18:01;;;;;;;0.20;0.20;;;;;;;;;;10099277;28;20797;-75
2023/07/18 12:23:03;;;;;;;0.20;0.20;;;;;;;;;;10101591;28;20354;-78
2023/07/18 12:28:05;;;;;;;0.20;0.20;;;;;;;;;;10103651;28;21499;-76
2023/07/18 12:33:06;;;;;;;0.30;0.20;;;;;;;;;;10077949;28;21478;-77
2023/07/18 12:38:07;;;;;;;0.20;0.20;;;;;;;;;;10072308;28;20238;-76
2023/07/18 12:43:09;;;;;;;0.30;0.30;;;;;;;;;;10088673;28;20233;-75
2023/07/18 12:48:10;;;;;;;0.20;0.20;;;;;;;;;;10074351;28;21547;-74
2023/07/18 12:53:11;;;;;;;0.40;0.20;;;;;;;;;;10071937;28;20221;-78
2023/07/18 12:58:12;;;;;;;0.40;0.17;;;;;;;;;;10090828;28;21676;-75
2023/07/18 13:03:13;;;;;;;0.47;0.30;;;;;;;;;;10082873;28;21869;-76
2023/07/18 13:08:14;;;;;;;0.50;0.30;;;;;;;;;;10068082;28;20310;-78
2023/07/18 13:13:16;;;;;;;0.43;0.20;;;;;;;;;;10089896;28;22796;-74
2023/07/18 13:18:18;;;;;;;1.17;0.10;;;;;;;;;;10079313;28;21059;-74
2023/07/18 13:23:20;;;;;;;0.17;0.17;;;;;;;;;;10093237;28;21008;-74
2023/07/18 13:28:21;;;;;;;0.43;0.20;;;;;;;;;;10083338;28;20668;-75
2023/07/18 13:33:23;;;;;;;0.17;0.17;;;;;;;;;;10085213;28;21021;-73
2023/07/18 13:38:24;;;;;;;0.10;0.10;;;;;;;;;;10095420;28;20749;-76
2023/07/18 13:43:25;;;;;;;0.75;0.20;;;;;;;;;;10093390;28;20224;-74
2023/07/18 13:48:26;;;;;;;0.10;0.10;;;;;;;;;;10086637;28;20217;-73
2023/07/18 13:53:27;;;;;;;0.73;0.17;;;;;;;;;;10079192;28;22611;-77
2023/07/18 13:58:28;;;;;;;0.20;0.20;;;;;;;;;;10098365;28;20366;-75
2023/07/18 14:03:30;;;;;;;2.55;0.20;;;;;;;;;;10090783;28;20221;-75
2023/07/18 14:08:31;;;;;;;0.63;0.20;;;;;;;;;;10092215;28;22835;-73
2023/07/18 14:13:33;;;;;;;0.20;0.20;;;;;;;;;;10092503;28;20224;-74
2023/07/18 14:18:34;;;;;;;0.85;0.28;;;;;;;;;;10075643;28;21469;-74
2023/07/18 14:23:36;;;;;;;0.10;0.10;;;;;;;;;;10090044;28;20374;-77
2023/07/18 14:28:37;;;;;;;0.75;0.20;;;;;;;;;;10074931;28;20225;-75
2023/07/18 14:33:38;;;;;;;0.20;0.20;;;;;;;;;;10096049;28;20232;-75
2023/07/18 14:38:39;;;;;;;0.20;0.20;;;;;;;;;;10094618;28;22189;-74
2023/07/18 14:43:40;;;;;;;0.30;0.20;;;;;;;;;;10091432;28;22840;-75
2023/07/18 14:48:41;;;;;;;0.20;0.20;;;;;;;;;;10087207;28;20228;-75
2023/07/18 14:53:42;;;;;;;0.20;0.20;;;;;;;;;;10065044;28;20362;-75
2023/07/18 14:58:44;;;;;;;0.32;0.20;;;;;;;;;;10083422;28;20233;-77
2023/07/18 15:03:45;;;;;;;0.20;0.20;;;;;;;;;;10074826;28;20220;-77
2023/07/18 15:08:47;;;;;;;0.20;0.20;;;;;;;;;;10123486;28;20240;-74
2023/07/18 15:13:49;;;;;;;0.50;0.30;;;;;;;;;;10100411;28;22729;-80
2023/07/18 15:18:50;;;;;;;0.20;0.20;;;;;;;;;;10095099;28;20315;-76
2023/07/18 15:23:51;;;;;;;0.22;0.22;;;;;;;;;;10100788;28;20235;-75
2023/07/18 15:28:53;;;;;;;0.20;0.20;;;;;;;;;;10093202;28;20221;-76
2023/07/18 15:33:54;;;;;;;0.30;0.30;;;;;;;;;;10098475;28;20307;-75
2023/07/18 15:38:55;;;;;;;0.20;0.20;;;;;;;;;;10109057;28;21303;-76
2023/07/18 15:43:56;;;;;;;0.20;0.20;;;;;;;;;;10082915;28;21066;-76
2023/07/18 15:48:57;;;;;;;0.20;0.13;;;;;;;;;;10089476;28;20208;-78
2023/07/18 15:53:58;;;;;;;0.20;0.20;;;;;;;;;;10101005;28;20247;-78
2023/07/18 15:59:00;;;;;;;0.20;0.20;;;;;;;;;;10076404;28;20281;-76
2023/07/18 16:04:01;;;;;;;0.20;0.20;;;;;;;;;;10078691;28;21621;-76
2023/07/18 16:09:02;;;;;;;0.52;0.20;;;;;;;;;;10096209;28;20279;-79
2023/07/18 16:14:04;;;;;;;0.20;0.20;;;;;;;;;;10088016;28;20320;-75
2023/07/18 16:19:05;;;;;;;0.85;0.30;;;;;;;;;;10102222;28;21231;-78
2023/07/18 16:24:08;;;;;;;0.20;0.20;;;;;;;;;;10090564;28;20228;-78
2023/07/18 16:29:09;;;;;;;0.30;0.30;;;;;;;;;;10100154;28;20228;-78
2023/07/18 16:34:10;;;;;;;0.43;0.20;;;;;;;;;;10119919;28;20253;-76
2023/07/18 16:39:12;;;;;;;1.65;0.22;;;;;;;;;;10109413;28;20212;-78
2023/07/18 16:44:13;;;;;;;0.95;0.20;;;;;;;;;;10090813;28;21501;-78
2023/07/18 16:49:14;;;;;;;0.20;0.20;;;;;;;;;;10092892;28;20220;-78
2023/07/18 16:54:16;;;;;;;0.90;0.20;;;;;;;;;;10100525;28;20912;-76
2023/07/18 16:59:17;;;;;;;0.20;0.20;;;;;;;;;;10052477;28;20485;-77
2023/07/18 17:04:18;;;;;;;0.20;0.20;;;;;;;;;;10093123;28;20219;-78
2023/07/18 17:09:20;;;;;;;0.52;0.20;;;;;;;;;;10094432;28;20820;-78
2023/07/18 17:14:21;;;;;;;0.20;0.20;;;;;;;;;;10090188;28;20860;-77
2023/07/18 17:19:22;;;;;;;0.20;0.20;;;;;;;;;;10109053;28;20250;-77
2023/07/18 17:24:23;;;;;;;0.20;0.20;;;;;;;;;;10100027;28;20655;-79
2023/07/18 17:29:24;;;;;;;0.20;0.20;;;;;;;;;;10083647;28;20227;-77
2023/07/18 17:34:25;;;;;;;0.55;0.30;;;;;;;;;;10109358;28;20455;-77
2023/07/18 17:39:27;;;;;;;1.45;0.20;;;;;;;;;;10058410;28;20219;-78
2023/07/18 17:44:28;;;;;;;0.20;0.20;;;;;;;;;;10089430;28;20815;-78
2023/07/18 17:49:29;;;;;;;0.20;0.20;;;;;;;;;;10103229;28;22384;-78
2023/07/18 17:54:31;;;;;;;1.17;0.20;;;;;;;;;;10112236;28;20671;-81
2023/07/18 17:59:32;;;;;;;0.30;0.30;;;;;;;;;;10134721;28;20220;-79
2023/07/18 18:04:36;;;;;;;1.75;0.30;;;;;;;;;;10135418;28;21080;-82
2023/07/18 18:09:37;;;;;;;0.40;0.30;;;;;;;;;;10186415;28;20748;-78
2023/07/18 18:14:38;;;;;;;0.10;0.10;;;;;;;;;;10144924;28;20294;-80
2023/07/18 18:19:39;;;;;;;0.15;0.15;;;;;;;;;;10094152;28;20308;-78
2023/07/18 18:24:41;;;;;;;0.20;0.20;;;;;;;;;;10125817;28;20270;-79
2023/07/18 18:29:42;;;;;;;2.17;0.22;;;;;;;;;;10116772;28;20217;-81
2023/07/18 18:34:43;;;;;;;0.20;0.20;;;;;;;;;;10124865;28;20224;-77
2023/07/18 18:39:44;;;;;;;0.17;0.17;;;;;;;;;;10114143;28;20231;-77
2023/07/18 18:44:45;;;;;;;0.30;0.20;;;;;;;;;;10107069;28;20279;-78
2023/07/18 18:49:47;;;;;;;5.68;0.30;;;;;;;;;;10105741;28;21418;-79
2023/07/18 18:54:49;;;;;;;0.20;0.20;;;;;;;;;;10127793;28;20220;-77
2023/07/18 18:59:50;;;;;;;0.20;0.20;;;;;;;;;;10121376;28;20913;-78
2023/07/18 19:04:51;;;;;;;2.78;1.02;;;;;;;;;;10108333;28;20605;-78
2023/07/18 19:09:53;;;;;;;3.55;0.22;;;;;;;;;;10083113;28;20549;-75
2023/07/18 19:14:54;;;;;;;0.30;0.30;;;;;;;;;;10100012;28;20286;-77
2023/07/18 19:19:55;;;;;;;4.80;0.30;;;;;;;;;;10084844;28;21434;-78
2023/07/18 19:24:56;;;;;;;0.90;0.30;;;;;;;;;;10083228;28;20337;-75
2023/07/18 19:29:58;;;;;;;1.85;0.50;;;;;;;;;;10091918;28;20216;-76
2023/07/18 19:35:01;;;;;;;0.50;0.50;;;;;;;;;;10094813;28;20924;-77
2023/07/18 19:40:02;;;;;;;0.90;0.30;;;;;;;;;;10108630;28;20244;-77
2023/07/18 19:45:05;;;;;;;0.43;0.43;;;;;;;;;;10085992;28;20769;-77
2023/07/18 19:50:07;;;;;;;0.30;0.30;;;;;;;;;;10100652;28;20649;-75
2023/07/18 19:55:09;;;;;;;0.52;0.20;;;;;;;;;;10102435;28;20941;-78
2023/07/18 20:00:11;;;;;;;0.30;0.30;;;;;;;;;;10092925;28;20249;-78
2023/07/18 20:05:12;;;;;;;0.28;0.25;;;;;;;;;;10096378;28;20215;-78
2023/07/18 20:10:13;;;;;;;0.55;0.30;;;;;;;;;;10091943;28;20450;-78
2023/07/18 20:15:15;;;;;;;0.30;0.30;;;;;;;;;;10088006;28;20211;-79
2023/07/18 20:20:18;;;;;;;0.22;0.22;;;;;;;;;;10079567;28;20203;-79
2023/07/18 20:25:19;;;;;;;0.10;0.10;;;;;;;;;;10104202;28;20581;-79
2023/07/18 20:30:20;;;;;;;0.20;0.20;;;;;;;;;;10114525;28;20184;-80
2023/07/18 20:35:22;;;;;;;0.20;0.20;;;;;;;;;;10096196;28;21526;-78
2023/07/18 20:40:23;;;;;;;0.85;0.30;;;;;;;;;;10106887;28;20215;-79
2023/07/18 20:45:25;;;;;;;0.30;0.30;;;;;;;;;;10078456;28;20701;-79
2023/07/18 20:50:26;;;;;;;0.30;0.20;;;;;;;;;;10077194;28;21371;-78
2023/07/18 20:55:27;;;;;;;0.30;0.30;;;;;;;;;;10090017;28;20227;-77
2023/07/18 21:00:28;;;;;;;0.30;0.30;;;;;;;;;;10060657;28;20217;-78
2023/07/18 21:05:30;;;;;;;0.35;0.35;;;;;;;;;;10083892;28;22960;-79
2023/07/18 21:10:33;;;;;;;0.40;0.40;;;;;;;;;;10083390;28;21394;-78
2023/07/18 21:15:34;;;;;;;0.30;0.30;;;;;;;;;;10078052;28;20225;-78
2023/07/18 21:20:35;;;;;;;1.08;0.30;;;;;;;;;;10109265;28;20227;-78
2023/07/18 21:25:36;;;;;;;0.77;0.30;;;;;;;;;;10090742;28;20259;-78
2023/07/18 21:30:37;;;;;;;0.50;0.50;;;;;;;;;;10096440;28;20224;-76
2023/07/18 21:35:39;;;;;;;1.63;0.52;;;;;;;;;;10102659;28;20367;-78
2023/07/18 21:40:40;;;;;;;1.70;0.35;;;;;;;;;;10096547;28;23629;-75
2023/07/18 21:45:41;;;;;;;0.28;0.28;;;;;;;;;;10079257;28;20216;-77
2023/07/18 21:50:43;;;;;;;3.40;0.30;;;;;;;;;;10090304;28;22745;-78
2023/07/18 21:55:44;;;;;;;0.30;0.30;;;;;;;;;;10103311;28;20460;-78
2023/07/18 22:00:45;;;;;;;0.30;0.30;;;;;;;;;;10103987;28;20849;-75
2023/07/18 22:05:46;;;;;;;0.30;0.30;;;;;;;;;;10104005;28;21898;-77
2023/07/18 22:10:47;;;;;;;0.30;0.30;;;;;;;;;;10101858;28;24145;-77
2023/07/18 22:15:49;;;;;;;0.50;0.40;;;;;;;;;;10109493;28;21731;-79
2023/07/18 22:20:50;;;;;;;1.63;0.40;;;;;;;;;;10107118;28;21093;-77
2023/07/18 22:25:52;;;;;;;0.65;0.30;;;;;;;;;;10106108;28;22396;-79
2023/07/18 22:30:53;;;;;;;1.05;0.20;;;;;;;;;;10091207;28;20224;-76
2023/07/18 22:35:54;;;;;;;1.10;0.50;;;;;;;;;;10087005;28;20228;-78
2023/07/18 22:40:57;;;;;;;7.60;0.50;;;;;;;;;;10096319;28;21219;-76
2023/07/18 22:45:58;;;;;;;0.47;0.40;;;;;;;;;;10077906;28;20231;-77
2023/07/18 22:50:59;;;;;;;0.50;0.35;;;;;;;;;;10109920;28;22372;-78
2023/07/18 22:56:00;;;;;;;0.38;0.35;;;;;;;;;;10101342;28;23602;-77
2023/07/18 23:01:02;;;;;;;0.40;0.30;;;;;;;;;;10100892;28;20227;-77
2023/07/18 23:06:03;;;;;;;2.25;0.40;;;;;;;;;;10093259;28;20227;-77
2023/07/18 23:11:23;;;;;;;2.47;0.68;;;;;;;;;;10097412;28;20986;-77
2023/07/18 23:16:25;;;;;;;1.05;0.40;;;;;;;;;;10097610;28;21436;-76
2023/07/18 23:21:26;;;;;;;0.50;0.40;;;;;;;;;;10088227;28;20238;-76
2023/07/18 23:26:27;;;;;;;1.08;0.30;;;;;;;;;;10092112;28;20227;-77
2023/07/18 23:31:28;;;;;;;0.50;0.50;;;;;;;;;;10096321;28;20242;-77
2023/07/18 23:36:29;;;;;;;1.85;0.35;;;;;;;;;;10101764;28;20224;-78
2023/07/18 23:41:31;;;;;;;0.77;0.35;;;;;;;;;;10112078;28;21906;-76
2023/07/18 23:46:33;;;;;;;0.45;0.30;;;;;;;;;;10105612;28;20366;-78
2023/07/18 23:51:34;;;;;;;0.30;0.30;;;;;;;;;;10087334;28;20248;-78
2023/07/18 23:56:35;;;;;;;1.02;0.30;;;;;;;;;;10094452;28;22594;-76
